sensor_id;sensor_type;location;lat;lon;timestamp;pressure;altitude;pressure_sealevel;temperature;humidity
9261;BME280;4667;42.726;23.252;2024-01-15T11:33:58;93847.28;;;6.05;37.66
9261;BME280;4667;42.726;23.252;2024-01-15T11:39:41;94138.31;;;7.82;38.62
9261;BME280;4667;42.726;23.252;2024-01-15T11:42:12;94049.78;;;7.00;37.86
9261;BME280;4667;42.726;23.252;2024-01-15T11:44:41;93771.16;;;5.37;37.49
9261;BME280;4667;42.726;23.252;2024-01-15T11:47:09;94138.19;;;7.57;39.41
9261;BME280;4667;42.726;23.252;2024-01-15T11:50:01;94126.56;;;7.90;38.46
9261;BME280;4667;42.726;23.252;2024-01-15T11:52:35;94057.84;;;7.36;39.61
9261;BME280;4667;42.726;23.252;2024-01-15T11:55:11;93676.13;;;4.47;39.48
9261;BME280;4667;42.726;23.252;2024-01-15T11:57:46;93688.41;;;4.78;39.19
9261;BME280;4667;42.726;23.252;2024-01-15T12:00:14;93995.13;;;6.76;39.05
9261;BME280;4667;42.726;23.252;2024-01-15T12:02:43;94117.53;;;7.18;40.23
9261;BME280;4667;42.726;23.252;2024-01-15T12:05:13;93826.81;;;5.32;39.24
9261;BME280;4667;42.726;23.252;2024-01-15T12:07:40;93901.56;;;5.28;39.99
9261;BME280;4667;42.726;23.252;2024-01-15T12:10:10;93841.41;;;5.01;40.52
9261;BME280;4667;42.726;23.252;2024-01-15T12:12:46;94098.69;;;6.84;41.45
9261;BME280;4667;42.726;23.252;2024-01-15T12:15:14;93820.13;;;5.14;40.85
9261;BME280;4667;42.726;23.252;2024-01-15T12:17:41;94021.25;;;6.61;40.38
9261;BME280;4667;42.726;23.252;2024-01-15T12:20:10;93774.88;;;5.09;39.91
9261;BME280;4667;42.726;23.252;2024-01-15T12:22:39;93890.13;;;5.66;40.26
9261;BME280;4667;42.726;23.252;2024-01-15T12:25:06;94080.78;;;7.08;41.01
9261;BME280;4667;42.726;23.252;2024-01-15T12:27:35;93984.13;;;6.37;40.40
9261;BME280;4667;42.726;23.252;2024-01-15T12:30:06;93520.25;;;3.29;40.00
9261;BME280;4667;42.726;23.252;2024-01-15T12:33:06;93453.31;;;2.85;41.18
9261;BME280;4667;42.726;23.252;2024-01-15T12:35:35;93993.97;;;6.57;42.42
9261;BME280;4667;42.726;23.252;2024-01-15T12:38:03;93834.84;;;5.58;41.45
9261;BME280;4667;42.726;23.252;2024-01-15T12:40:34;94062.34;;;6.98;41.63
9261;BME280;4667;42.726;23.252;2024-01-15T12:43:20;94034.25;;;6.88;40.79
9261;BME280;4667;42.726;23.252;2024-01-15T12:45:47;94071.88;;;7.14;40.87
9261;BME280;4667;42.726;23.252;2024-01-15T12:48:15;93990.34;;;6.63;40.36
9261;BME280;4667;42.726;23.252;2024-01-15T12:50:45;93893.56;;;5.99;40.71
9261;BME280;4667;42.726;23.252;2024-01-15T12:53:24;94066.28;;;7.00;41.09
9261;BME280;4667;42.726;23.252;2024-01-15T12:55:51;93982.53;;;6.31;41.58
9261;BME280;4667;42.726;23.252;2024-01-15T12:58:19;93760.88;;;4.93;42.68
9261;BME280;4667;42.726;23.252;2024-01-15T13:00:46;94047.91;;;6.95;43.38
9261;BME280;4667;42.726;23.252;2024-01-15T13:03:19;93813.25;;;5.35;42.91
9261;BME280;4667;42.726;23.252;2024-01-15T13:05:46;93982.84;;;6.40;40.63
9261;BME280;4667;42.726;23.252;2024-01-15T13:08:13;93975.78;;;6.40;41.05
9261;BME280;4667;42.726;23.252;2024-01-15T13:10:42;94042.66;;;6.53;42.88
9261;BME280;4667;42.726;23.252;2024-01-15T13:13:11;94043.06;;;6.72;43.36
9261;BME280;4667;42.726;23.252;2024-01-15T13:15:41;93729.19;;;4.84;41.76
9261;BME280;4667;42.726;23.252;2024-01-15T13:18:14;94037.91;;;6.87;42.28
9261;BME280;4667;42.726;23.252;2024-01-15T13:20:41;94030.25;;;6.43;42.98
9261;BME280;4667;42.726;23.252;2024-01-15T13:23:08;94021.22;;;6.56;43.47
9261;BME280;4667;42.726;23.252;2024-01-15T13:25:35;94046.44;;;6.35;44.00
9261;BME280;4667;42.726;23.252;2024-01-15T13:28:06;94024.94;;;6.33;43.31
9261;BME280;4667;42.726;23.252;2024-01-15T13:30:48;93827.47;;;4.90;45.03
9261;BME280;4667;42.726;23.252;2024-01-15T13:33:33;94007.25;;;6.45;44.12
9261;BME280;4667;42.726;23.252;2024-01-15T13:36:03;94022.22;;;6.55;43.96
9261;BME280;4667;42.726;23.252;2024-01-15T13:38:37;94017.50;;;6.52;43.85
9261;BME280;4667;42.726;23.252;2024-01-15T13:41:05;93942.44;;;5.93;43.80
9261;BME280;4667;42.726;23.252;2024-01-15T13:43:41;94024.16;;;6.70;43.62
9261;BME280;4667;42.726;23.252;2024-01-15T13:46:10;93627.44;;;4.08;43.35
9261;BME280;4667;42.726;23.252;2024-01-15T13:48:43;94001.50;;;6.48;43.63
9261;BME280;4667;42.726;23.252;2024-01-15T13:51:18;93894.53;;;5.93;42.89
9261;BME280;4667;42.726;23.252;2024-01-15T13:53:45;93782.13;;;5.34;43.22
9261;BME280;4667;42.726;23.252;2024-01-15T13:56:12;93890.75;;;6.11;43.89
9261;BME280;4667;42.726;23.252;2024-01-15T13:58:40;93818.69;;;5.61;43.11
9261;BME280;4667;42.726;23.252;2024-01-15T14:01:08;93995.56;;;7.11;42.34
9261;BME280;4667;42.726;23.252;2024-01-15T14:03:36;93996.31;;;7.06;42.49
9261;BME280;4667;42.726;23.252;2024-01-15T14:06:03;94007.84;;;7.05;43.12
9261;BME280;4667;42.726;23.252;2024-01-15T14:08:34;94005.06;;;7.22;43.77
9261;BME280;4667;42.726;23.252;2024-01-15T14:11:01;93881.84;;;6.59;44.30
9261;BME280;4667;42.726;23.252;2024-01-15T14:13:28;93983.59;;;7.35;43.31
9261;BME280;4667;42.726;23.252;2024-01-15T14:15:57;93995.66;;;6.78;44.27
9261;BME280;4667;42.726;23.252;2024-01-15T14:18:24;93878.88;;;5.98;44.03
9261;BME280;4667;42.726;23.252;2024-01-15T14:20:51;93981.88;;;6.98;43.99
9261;BME280;4667;42.726;23.252;2024-01-15T14:23:19;93994.53;;;7.07;43.93
9261;BME280;4667;42.726;23.252;2024-01-15T14:25:46;93997.53;;;6.83;43.05
9261;BME280;4667;42.726;23.252;2024-01-15T14:28:13;93898.56;;;6.48;43.51
9261;BME280;4667;42.726;23.252;2024-01-15T14:30:40;93972.53;;;6.70;44.32
9261;BME280;4667;42.726;23.252;2024-01-15T14:33:08;93990.00;;;6.55;44.07
9261;BME280;4667;42.726;23.252;2024-01-15T14:35:36;93976.28;;;6.80;43.99
9261;BME280;4667;42.726;23.252;2024-01-15T14:38:05;93958.06;;;6.15;45.13
9261;BME280;4667;42.726;23.252;2024-01-15T14:40:35;93961.75;;;6.19;44.83
9261;BME280;4667;42.726;23.252;2024-01-15T14:43:03;93591.75;;;3.87;45.23
9261;BME280;4667;42.726;23.252;2024-01-15T14:45:30;93948.75;;;6.30;44.91
9261;BME280;4667;42.726;23.252;2024-01-15T14:48:00;93971.31;;;6.36;44.11
9261;BME280;4667;42.726;23.252;2024-01-15T14:50:31;93868.25;;;5.83;45.10
9261;BME280;4667;42.726;23.252;2024-01-15T14:53:00;93916.19;;;6.15;45.93
9261;BME280;4667;42.726;23.252;2024-01-15T14:55:29;93961.19;;;6.55;44.55
9261;BME280;4667;42.726;23.252;2024-01-15T14:57:56;93966.59;;;6.38;44.93
9261;BME280;4667;42.726;23.252;2024-01-15T15:00:23;93979.31;;;6.24;45.21
9261;BME280;4667;42.726;23.252;2024-01-15T15:02:50;93961.44;;;6.11;45.00
9261;BME280;4667;42.726;23.252;2024-01-15T15:05:17;93955.59;;;6.36;44.95
9261;BME280;4667;42.726;23.252;2024-01-15T15:07:45;93964.78;;;6.06;45.01
9261;BME280;4667;42.726;23.252;2024-01-15T15:10:12;93952.88;;;6.20;44.33
9261;BME280;4667;42.726;23.252;2024-01-15T15:12:39;93952.66;;;5.95;45.33
9261;BME280;4667;42.726;23.252;2024-01-15T15:15:07;93885.59;;;5.57;46.33
9261;BME280;4667;42.726;23.252;2024-01-15T15:17:36;93743.69;;;4.70;45.34
9261;BME280;4667;42.726;23.252;2024-01-15T15:20:04;93816.66;;;5.36;46.12
9261;BME280;4667;42.726;23.252;2024-01-15T15:22:31;93949.56;;;6.03;46.69
9261;BME280;4667;42.726;23.252;2024-01-15T15:25:00;93798.91;;;5.11;45.64
9261;BME280;4667;42.726;23.252;2024-01-15T15:27:26;93955.56;;;5.71;45.97
9261;BME280;4667;42.726;23.252;2024-01-15T15:29:54;93972.03;;;5.94;46.16
9261;BME280;4667;42.726;23.252;2024-01-15T15:32:21;93965.56;;;6.07;46.09
9261;BME280;4667;42.726;23.252;2024-01-15T15:34:49;93702.66;;;4.38;46.10
9261;BME280;4667;42.726;23.252;2024-01-15T15:37:16;93856.59;;;5.31;45.75
9261;BME280;4667;42.726;23.252;2024-01-15T15:39:43;93968.69;;;6.04;46.49
9261;BME280;4667;42.726;23.252;2024-01-15T15:42:11;93957.91;;;5.95;46.67
9261;BME280;4667;42.726;23.252;2024-01-15T15:44:39;93843.09;;;5.39;46.42
9261;BME280;4667;42.726;23.252;2024-01-15T15:47:11;93723.31;;;3.96;47.57
9261;BME280;4667;42.726;23.252;2024-01-15T15:49:42;93391.06;;;1.79;46.77
9261;BME280;4667;42.726;23.252;2024-01-15T15:55:53;93682.13;;;3.76;48.35
9261;BME280;4667;42.726;23.252;2024-01-15T15:58:21;93941.75;;;5.49;47.85
9261;BME280;4667;42.726;23.252;2024-01-15T16:00:48;93715.22;;;4.20;47.53
9261;BME280;4667;42.726;23.252;2024-01-15T16:03:15;93961.91;;;5.27;49.14
9261;BME280;4667;42.726;23.252;2024-01-15T16:05:42;93958.31;;;5.11;49.10
9261;BME280;4667;42.726;23.252;2024-01-15T16:08:09;93951.13;;;5.45;48.83
9261;BME280;4667;42.726;23.252;2024-01-15T16:10:36;93884.31;;;5.05;48.39
9261;BME280;4667;42.726;23.252;2024-01-15T16:13:06;93717.00;;;3.92;48.78
9261;BME280;4667;42.726;23.252;2024-01-15T16:15:34;93700.78;;;3.46;49.89
9261;BME280;4667;42.726;23.252;2024-01-15T16:18:01;93942.19;;;5.41;49.34
9261;BME280;4667;42.726;23.252;2024-01-15T16:20:30;93586.50;;;3.16;49.38
9261;BME280;4667;42.726;23.252;2024-01-15T16:22:57;93951.00;;;5.35;49.47
